Time;durP1;ratioP1;P1;durP2;ratioP2;P2;SDS_P1;SDS_P2;PMS_P1;PMS_P2;Temp;Humidity;BMP_temperature;BMP_pressure;BME280_temperature;BME280_humidity;BME280_pressure;Samples;Min_cycle;Max_cycle;Signal;HPM_P1;HPM_P2
2022/04/28 00:00:51;;;;;;;11.27;7.93;;;9.40;66.60;;;;;;5092085;28;20097;-80
2022/04/28 00:03:18;;;;;;;12.20;8.18;;;9.30;66.70;;;;;;5092895;28;20490;-81
2022/04/28 00:05:45;;;;;;;12.15;7.53;;;9.30;66.70;;;;;;5092136;28;20097;-80
2022/04/28 00:08:12;;;;;;;11.88;7.53;;;9.30;66.70;;;;;;5092019;28;20100;-80
2022/04/28 00:10:40;;;;;;;11.32;6.95;;;9.20;66.80;;;;;;5092129;28;20093;-80
2022/04/28 00:13:09;;;;;;;14.82;8.00;;;9.20;66.80;;;;;;5092184;28;20475;-81
2022/04/28 00:15:36;;;;;;;9.85;6.88;;;9.20;66.90;;;;;;5091385;28;20052;-81
2022/04/28 00:18:03;;;;;;;14.05;8.15;;;9.20;66.90;;;;;;5092360;28;20106;-80
2022/04/28 00:20:30;;;;;;;10.65;7.80;;;9.10;66.90;;;;;;5091884;28;20051;-80
2022/04/28 00:22:57;;;;;;;11.27;7.18;;;9.10;66.90;;;;;;5092052;28;20058;-81
2022/04/28 00:25:24;;;;;;;10.65;6.95;;;9.10;67.00;;;;;;5092086;28;20044;-80
2022/04/28 00:27:51;;;;;;;16.00;7.95;;;9.10;67.10;;;;;;5091864;28;20532;-80
2022/04/28 00:30:18;;;;;;;12.02;7.47;;;9.10;67.10;;;;;;5092202;28;20455;-80
2022/04/28 00:32:45;;;;;;;10.90;7.65;;;9.00;67.10;;;;;;5091710;28;20052;-81
2022/04/28 00:35:12;;;;;;;12.93;8.20;;;9.00;67.10;;;;;;5091811;28;20119;-80
2022/04/28 00:37:40;;;;;;;15.43;8.32;;;9.00;67.20;;;;;;5091401;28;20516;-81
2022/04/28 00:40:08;;;;;;;11.52;7.82;;;9.00;67.20;;;;;;5091905;28;20048;-81
2022/04/28 00:42:35;;;;;;;12.43;8.07;;;8.90;67.20;;;;;;5092221;28;20098;-81
2022/04/28 00:45:02;;;;;;;12.50;7.85;;;8.90;67.20;;;;;;5091196;28;20105;-80
2022/04/28 00:53:02;;;;;;;15.55;8.15;;;8.80;67.40;;;;;;5091606;28;20098;-80
2022/04/28 00:55:30;;;;;;;12.40;8.95;;;8.80;67.40;;;;;;5091546;28;20169;-81
2022/04/28 00:57:58;;;;;;;13.60;8.50;;;8.80;67.40;;;;;;5091506;28;20109;-80
2022/04/28 01:00:25;;;;;;;14.93;8.40;;;8.80;67.50;;;;;;5091905;28;20048;-80
2022/04/28 01:02:52;;;;;;;11.80;8.02;;;8.70;67.50;;;;;;5091470;28;20044;-81
2022/04/28 01:05:19;;;;;;;13.20;8.90;;;8.70;67.60;;;;;;5091596;28;20129;-80
2022/04/28 01:07:46;;;;;;;15.40;9.65;;;8.70;67.60;;;;;;5091447;28;20539;-80
2022/04/28 01:10:14;;;;;;;14.50;9.00;;;8.60;67.60;;;;;;5091560;28;20097;-80
2022/04/28 01:12:41;;;;;;;14.80;8.95;;;8.60;67.70;;;;;;5091658;28;20616;-81
2022/04/28 01:15:09;;;;;;;14.05;9.20;;;8.60;67.80;;;;;;5091612;28;20044;-80
2022/04/28 01:17:35;;;;;;;13.90;9.05;;;8.60;67.70;;;;;;5123980;28;20101;-80
2022/04/28 01:20:02;;;;;;;13.30;9.13;;;8.50;67.80;;;;;;5091384;28;20043;-80
2022/04/28 01:22:29;;;;;;;12.82;9.23;;;8.50;67.90;;;;;;5091377;28;20103;-81
2022/04/28 01:24:56;;;;;;;12.70;8.80;;;8.50;67.90;;;;;;5091428;28;20173;-80
2022/04/28 01:27:43;;;;;;;14.05;9.35;;;8.50;68.00;;;;;;5092283;28;20106;-80
2022/04/28 01:30:14;;;;;;;17.80;9.32;;;8.40;68.00;;;;;;5095271;28;20089;-81
2022/04/28 01:32:41;;;;;;;14.38;9.35;;;8.40;68.10;;;;;;5094993;28;20579;-80
2022/04/28 01:35:09;;;;;;;15.25;8.88;;;8.40;68.10;;;;;;5094865;28;20085;-81
2022/04/28 01:37:35;;;;;;;14.30;8.75;;;8.40;68.10;;;;;;5094932;28;20097;-80
2022/04/28 01:40:06;;;;;;;18.95;9.48;;;8.40;68.20;;;;;;5078973;28;20490;-80
2022/04/28 01:42:32;;;;;;;16.35;9.90;;;8.40;68.20;;;;;;5091378;28;20047;-80
2022/04/28 01:44:59;;;;;;;13.02;8.85;;;8.40;68.20;;;;;;5094764;28;20052;-80
2022/04/28 01:47:26;;;;;;;14.27;8.90;;;8.30;68.30;;;;;;5094845;28;20044;-80
2022/04/28 01:49:53;;;;;;;12.48;9.35;;;8.30;68.30;;;;;;5094797;28;20118;-80
2022/04/28 01:55:06;;;;;;;16.65;9.10;;;8.30;68.30;;;;;;5079030;28;20058;-81
2022/04/28 01:57:32;;;;;;;18.10;10.00;;;8.20;68.30;;;;;;5094806;28;20094;-80
2022/04/28 02:00:00;;;;;;;15.43;9.00;;;8.20;68.40;;;;;;5094657;28;20105;-80
2022/04/28 02:02:27;;;;;;;17.25;8.40;;;8.20;68.40;;;;;;5094549;28;20051;-80
2022/04/28 02:04:59;;;;;;;18.75;9.60;;;8.20;68.40;;;;;;5094472;28;20040;-80
2022/04/28 02:07:27;;;;;;;16.55;9.80;;;8.20;68.50;;;;;;5094482;28;20413;-80
2022/04/28 02:09:56;;;;;;;15.70;9.45;;;8.10;68.50;;;;;;5094407;28;20105;-81
2022/04/28 02:12:24;;;;;;;15.18;10.10;;;8.10;68.50;;;;;;5094659;28;20093;-80
2022/04/28 02:14:52;;;;;;;16.42;10.20;;;8.10;68.50;;;;;;5094145;28;20493;-81
2022/04/28 02:17:21;;;;;;;14.85;9.43;;;8.00;68.50;;;;;;5094110;28;20447;-80
2022/04/28 02:19:48;;;;;;;15.75;9.30;;;8.00;68.60;;;;;;5094180;28;20060;-80
2022/04/28 02:22:15;;;;;;;15.18;9.82;;;8.00;68.60;;;;;;5094119;28;20048;-80
2022/04/28 02:24:42;;;;;;;18.10;9.75;;;7.90;68.60;;;;;;5094367;28;20468;-80
2022/04/28 02:27:09;;;;;;;17.05;9.88;;;7.90;68.70;;;;;;5094165;28;20498;-81
2022/04/28 02:29:36;;;;;;;15.02;9.40;;;7.90;68.70;;;;;;5093997;28;20082;-80
2022/04/28 02:32:03;;;;;;;18.02;9.57;;;7.90;68.70;;;;;;5094020;28;20086;-80
2022/04/28 02:34:30;;;;;;;15.02;9.88;;;7.90;68.80;;;;;;5094011;28;20048;-80
2022/04/28 02:36:57;;;;;;;20.67;10.73;;;7.90;68.80;;;;;;5093934;28;20505;-80
2022/04/28 02:39:24;;;;;;;14.63;10.07;;;7.90;68.80;;;;;;5092527;28;20506;-81
2022/04/28 02:41:52;;;;;;;15.40;10.18;;;7.80;68.90;;;;;;5093426;28;20081;-80
2022/04/28 02:44:19;;;;;;;19.20;10.52;;;7.80;68.90;;;;;;5093721;28;20097;-80
2022/04/28 02:46:46;;;;;;;17.85;9.77;;;7.80;68.90;;;;;;5092424;28;20093;-81
2022/04/28 02:49:13;;;;;;;14.65;10.48;;;7.80;68.90;;;;;;5093760;28;20100;-80
2022/04/28 02:51:41;;;;;;;16.38;10.38;;;7.80;69.00;;;;;;5093644;28;20044;-80
2022/04/28 02:54:09;;;;;;;21.65;10.77;;;7.80;69.00;;;;;;5093420;28;20056;-80
2022/04/28 02:56:36;;;;;;;18.73;10.80;;;7.70;69.00;;;;;;5093122;28;20040;-80
2022/04/28 02:59:03;;;;;;;18.25;10.68;;;7.70;69.00;;;;;;5093354;28;20044;-81
2022/04/28 03:01:30;;;;;;;13.73;10.02;;;7.70;69.00;;;;;;5093442;28;20044;-80
2022/04/28 03:03:57;;;;;;;15.93;11.65;;;7.70;69.10;;;;;;5093492;28;20052;-80
2022/04/28 03:11:56;;;;;;;16.52;10.23;;;7.60;69.10;;;;;;5093165;28;20051;-80
2022/04/28 03:14:24;;;;;;;14.27;10.18;;;7.60;69.10;;;;;;5093080;28;20048;-81
2022/04/28 03:16:51;;;;;;;16.88;10.60;;;7.50;69.10;;;;;;5093073;28;20048;-80
2022/04/28 03:19:17;;;;;;;17.30;10.60;;;7.50;69.10;;;;;;5093123;28;20044;-81
2022/04/28 03:21:44;;;;;;;16.50;10.32;;;7.50;69.10;;;;;;5093016;28;20090;-80
2022/04/28 03:24:11;;;;;;;15.70;10.73;;;7.50;69.10;;;;;;5093096;28;20502;-80
2022/04/28 03:26:39;;;;;;;16.98;11.30;;;7.50;69.10;;;;;;5092848;28;20117;-81
2022/04/28 03:29:06;;;;;;;14.68;10.23;;;7.50;69.10;;;;;;5092902;28;20051;-80
2022/04/28 03:31:33;;;;;;;18.70;11.15;;;7.40;69.10;;;;;;5092797;28;20051;-80
2022/04/28 03:34:00;;;;;;;18.15;10.55;;;7.40;69.10;;;;;;5092706;28;20407;-80
2022/04/28 03:39:13;;;;;;;16.80;10.52;;;7.40;69.20;;;;;;5092484;28;20117;-80
2022/04/28 03:41:40;;;;;;;19.08;11.32;;;7.40;69.20;;;;;;5092624;28;20097;-81
2022/04/28 03:44:09;;;;;;;20.05;11.35;;;7.40;69.20;;;;;;5092575;28;20506;-82
2022/04/28 03:46:36;;;;;;;16.25;11.35;;;7.40;69.20;;;;;;5092589;28;20410;-81
2022/04/28 03:49:04;;;;;;;14.52;10.93;;;7.40;69.20;;;;;;5076664;28;20509;-81
2022/04/28 03:51:31;;;;;;;13.25;10.52;;;7.30;69.30;;;;;;5088015;28;20048;-81
2022/04/28 03:54:00;;;;;;;16.67;10.63;;;7.30;69.30;;;;;;5092148;28;20052;-80
2022/04/28 03:56:31;;;;;;;13.93;10.43;;;7.30;69.30;;;;;;5092292;28;20048;-80
2022/04/28 03:58:59;;;;;;;16.42;11.15;;;7.30;69.30;;;;;;5092132;28;20097;-80
2022/04/28 04:01:26;;;;;;;17.70;10.93;;;7.30;69.30;;;;;;5092281;28;20036;-80
2022/04/28 04:03:54;;;;;;;16.80;11.50;;;7.30;69.30;;;;;;5092288;28;20059;-80
2022/04/28 04:06:21;;;;;;;21.02;11.00;;;7.30;69.40;;;;;;5092831;28;20090;-80
2022/04/28 04:08:49;;;;;;;18.25;11.07;;;7.30;69.40;;;;;;5090670;28;20056;-81
2022/04/28 04:11:16;;;;;;;17.42;11.18;;;7.20;69.40;;;;;;5092017;28;20081;-80
2022/04/28 04:13:43;;;;;;;18.38;11.02;;;7.20;69.50;;;;;;5092064;28;20052;-80
2022/04/28 04:16:11;;;;;;;18.08;11.52;;;7.20;69.50;;;;;;5092116;28;20044;-80
2022/04/28 04:18:38;;;;;;;16.15;11.85;;;7.20;69.50;;;;;;5092338;28;20051;-80
2022/04/28 04:21:05;;;;;;;18.20;11.55;;;7.10;69.50;;;;;;5092229;28;20093;-81
2022/04/28 04:23:33;;;;;;;15.77;10.55;;;7.10;69.50;;;;;;5091528;28;20097;-80
2022/04/28 04:26:01;;;;;;;16.08;11.27;;;7.10;69.60;;;;;;5091942;28;20040;-80
2022/04/28 04:28:28;;;;;;;18.92;10.93;;;7.10;69.60;;;;;;5092054;28;20117;-82
2022/04/28 04:33:40;;;;;;;16.70;11.60;;;7.10;69.60;;;;;;5089100;28;20044;-81
2022/04/28 04:36:07;;;;;;;15.48;11.20;;;7.10;69.60;;;;;;5091251;28;20563;-81
2022/04/28 04:38:34;;;;;;;15.75;11.43;;;7.10;69.70;;;;;;5091567;28;20055;-81
2022/04/28 04:41:01;;;;;;;15.30;10.60;;;7.00;69.70;;;;;;5091721;28;20093;-81
2022/04/28 04:43:28;;;;;;;20.17;11.93;;;7.00;69.70;;;;;;5091793;28;20056;-81
2022/04/28 04:45:55;;;;;;;15.32;11.13;;;7.00;69.70;;;;;;5091600;28;20116;-81
2022/04/28 04:48:23;;;;;;;17.33;11.48;;;7.00;69.80;;;;;;5092272;28;20050;-81
2022/04/28 04:50:52;;;;;;;17.55;12.63;;;7.00;69.80;;;;;;5091117;28;20109;-81
2022/04/28 04:56:05;;;;;;;19.55;11.50;;;7.00;69.90;;;;;;5091562;28;20040;-81
2022/04/28 04:58:32;;;;;;;16.23;12.02;;;6.90;69.90;;;;;;5091608;28;20472;-80
2022/04/28 05:00:58;;;;;;;15.93;11.90;;;6.90;70.00;;;;;;5090466;28;20460;-80
2022/04/28 05:03:25;;;;;;;19.83;12.00;;;6.90;70.00;;;;;;5096019;28;20052;-80
2022/04/28 05:05:53;;;;;;;15.82;11.73;;;6.90;70.10;;;;;;5095289;28;20075;-81
2022/04/28 05:08:37;;;;;;;16.95;12.70;;;6.90;70.10;;;;;;5095603;28;20450;-80
2022/04/28 05:11:04;;;;;;;18.13;11.63;;;6.90;70.20;;;;;;5095460;28;20070;-80
2022/04/28 05:16:17;;;;;;;15.90;11.98;;;6.90;70.40;;;;;;5081146;28;20573;-81
2022/04/28 05:18:43;;;;;;;14.38;10.77;;;6.90;70.40;;;;;;5094326;28;20055;-81
2022/04/28 05:21:10;;;;;;;20.10;11.80;;;6.90;70.50;;;;;;5095504;28;20048;-81
2022/04/28 05:23:37;;;;;;;22.10;12.27;;;6.90;70.50;;;;;;5095243;28;20104;-80
2022/04/28 05:26:04;;;;;;;17.85;11.65;;;6.90;70.60;;;;;;5095160;28;20044;-81
2022/04/28 05:28:31;;;;;;;17.88;12.52;;;6.90;70.60;;;;;;5095222;28;20097;-81
2022/04/28 05:30:58;;;;;;;17.00;12.15;;;6.90;70.70;;;;;;5095307;28;20418;-81
2022/04/28 05:33:25;;;;;;;17.08;12.13;;;6.90;70.80;;;;;;5095765;28;20052;-80
2022/04/28 05:35:52;;;;;;;15.98;12.32;;;6.90;70.90;;;;;;5094673;28;20105;-80
2022/04/28 05:38:20;;;;;;;17.33;12.73;;;6.90;71.00;;;;;;5094644;28;20101;-81
2022/04/28 05:40:47;;;;;;;18.23;12.48;;;6.90;71.00;;;;;;5094792;28;20070;-81
2022/04/28 05:46:19;;;;;;;17.02;11.52;;;6.90;71.20;;;;;;5094654;28;20048;-81
2022/04/28 05:48:50;;;;;;;18.95;12.98;;;6.90;71.30;;;;;;5107255;28;20420;-81
2022/04/28 05:51:18;;;;;;;18.85;13.45;;;7.00;71.30;;;;;;5093355;28;20052;-81
2022/04/28 05:53:45;;;;;;;19.58;12.82;;;7.00;71.40;;;;;;5094367;28;20097;-81
2022/04/28 05:56:12;;;;;;;19.38;13.52;;;7.00;71.50;;;;;;5094462;28;20044;-81
2022/04/28 05:58:39;;;;;;;18.73;12.77;;;7.00;71.60;;;;;;5094358;28;20505;-81
2022/04/28 06:01:05;;;;;;;17.67;12.90;;;7.00;71.70;;;;;;5094407;28;20048;-81
2022/04/28 06:03:34;;;;;;;18.85;13.75;;;7.10;71.70;;;;;;5094457;28;20055;-81
2022/04/28 06:06:02;;;;;;;19.02;13.32;;;7.10;71.80;;;;;;5093440;28;20095;-81
2022/04/28 06:08:29;;;;;;;18.45;13.25;;;7.10;71.90;;;;;;5094002;28;20085;-81
2022/04/28 06:10:57;;;;;;;16.30;13.38;;;7.20;72.00;;;;;;5094158;28;20102;-80
2022/04/28 06:13:24;;;;;;;20.02;11.93;;;7.20;72.10;;;;;;5092196;28;20044;-83
2022/04/28 06:15:51;;;;;;;18.55;13.15;;;7.20;72.20;;;;;;5093924;28;20056;-82
2022/04/28 06:18:18;;;;;;;17.40;12.88;;;7.30;72.20;;;;;;5094192;28;20073;-81
2022/04/28 06:20:45;;;;;;;18.25;12.32;;;7.30;72.30;;;;;;5093955;28;20101;-81
2022/04/28 06:23:12;;;;;;;15.82;13.07;;;7.40;72.40;;;;;;5093891;28;20066;-80
2022/04/28 06:25:39;;;;;;;17.95;13.10;;;7.40;72.40;;;;;;5093713;28;20460;-80
2022/04/28 06:28:09;;;;;;;18.40;12.80;;;7.50;72.40;;;;;;5094063;28;20055;-81
2022/04/28 06:30:36;;;;;;;19.92;13.52;;;7.50;72.40;;;;;;5094525;28;20051;-82
2022/04/28 06:33:04;;;;;;;20.30;13.00;;;7.60;72.40;;;;;;5093373;28;20048;-80
2022/04/28 06:35:34;;;;;;;18.95;13.43;;;7.70;72.40;;;;;;5093606;28;20105;-80
2022/04/28 06:38:02;;;;;;;17.25;12.27;;;7.70;72.40;;;;;;5093574;28;20044;-80
2022/04/28 06:40:29;;;;;;;19.65;12.98;;;7.80;72.40;;;;;;5093699;28;20476;-80
2022/04/28 06:42:56;;;;;;;21.27;12.55;;;7.90;72.30;;;;;;5093605;28;20036;-80
2022/04/28 06:45:24;;;;;;;18.05;12.43;;;7.90;72.30;;;;;;5093970;28;20052;-80
2022/04/28 06:47:51;;;;;;;18.92;12.75;;;8.00;72.20;;;;;;5093026;28;20043;-80
2022/04/28 06:50:18;;;;;;;22.55;13.05;;;8.00;72.10;;;;;;5093450;28;20077;-81
2022/04/28 06:52:45;;;;;;;20.67;12.68;;;8.10;72.10;;;;;;5093454;28;20056;-80
2022/04/28 06:55:12;;;;;;;19.88;13.13;;;8.20;72.00;;;;;;5093465;28;20117;-80
2022/04/28 06:57:39;;;;;;;19.50;12.90;;;8.30;71.90;;;;;;5093483;28;20432;-80
2022/04/28 07:00:08;;;;;;;20.55;12.35;;;8.40;71.80;;;;;;5093456;28;20090;-80
2022/04/28 07:02:35;;;;;;;20.75;13.43;;;8.40;71.80;;;;;;5092941;28;20112;-80
2022/04/28 07:05:03;;;;;;;23.40;13.77;;;8.50;71.70;;;;;;5092991;28;20048;-80
2022/04/28 07:07:30;;;;;;;20.45;12.70;;;8.50;71.60;;;;;;5093230;28;20468;-79
2022/04/28 07:09:57;;;;;;;20.27;12.50;;;8.60;71.50;;;;;;5093082;28;20048;-82
2022/04/28 07:12:32;;;;;;;23.42;13.65;;;8.70;71.40;;;;;;5089381;28;20395;-81
2022/04/28 07:14:59;;;;;;;20.60;12.93;;;8.80;71.30;;;;;;5092867;28;20048;-81
2022/04/28 07:17:45;;;;;;;26.58;14.40;;;8.90;71.20;;;;;;5092542;28;20036;-81
2022/04/28 07:20:11;;;;;;;18.85;13.65;;;8.90;71.10;;;;;;5092664;28;20085;-81
2022/04/28 07:22:39;;;;;;;22.75;13.75;;;8.90;71.00;;;;;;5092977;28;20040;-81
2022/04/28 07:25:07;;;;;;;24.23;14.52;;;9.00;70.90;;;;;;5092604;28;20047;-81
2022/04/28 07:27:33;;;;;;;22.23;14.82;;;9.10;70.80;;;;;;5093396;28;20048;-80
2022/04/28 07:30:02;;;;;;;25.48;14.82;;;9.20;70.70;;;;;;5092753;28;20109;-81
2022/04/28 07:32:29;;;;;;;25.00;14.23;;;9.30;70.50;;;;;;5092140;28;20055;-80
2022/04/28 07:34:56;;;;;;;22.63;15.02;;;9.40;70.40;;;;;;5092386;28;20468;-80
2022/04/28 07:37:23;;;;;;;21.92;13.73;;;9.40;70.30;;;;;;5092455;28;20735;-80
2022/04/28 07:39:50;;;;;;;23.55;13.90;;;9.40;70.10;;;;;;5092211;28;20451;-79
2022/04/28 07:42:18;;;;;;;23.60;14.13;;;9.50;70.00;;;;;;5092875;28;20052;-81
2022/04/28 07:44:45;;;;;;;18.80;12.85;;;9.60;69.90;;;;;;5091647;28;20047;-79
2022/04/28 07:47:11;;;;;;;25.63;14.55;;;9.70;69.80;;;;;;5092280;28;20040;-80
2022/04/28 07:49:57;;;;;;;20.60;14.50;;;9.80;69.70;;;;;;5092315;28;20051;-80
2022/04/28 07:52:24;;;;;;;22.38;12.82;;;9.90;69.60;;;;;;5092231;28;20040;-80
2022/04/28 07:54:51;;;;;;;18.92;13.40;;;9.90;69.50;;;;;;5091799;28;20048;-80
2022/04/28 07:57:22;;;;;;;20.85;13.88;;;10.00;69.40;;;;;;5092602;28;20524;-80
2022/04/28 07:59:50;;;;;;;21.13;12.98;;;10.10;69.30;;;;;;5091548;28;20048;-80
2022/04/28 08:02:17;;;;;;;22.70;13.10;;;10.20;69.20;;;;;;5092098;28;20391;-80
2022/04/28 08:04:44;;;;;;;20.70;13.15;;;10.20;69.00;;;;;;5091908;28;20070;-80
2022/04/28 08:07:28;;;;;;;22.40;13.65;;;10.40;68.90;;;;;;5092080;28;20249;-80
2022/04/28 08:09:55;;;;;;;17.83;13.05;;;10.40;68.70;;;;;;5091930;28;20056;-80
2022/04/28 08:12:22;;;;;;;21.55;13.35;;;10.50;68.60;;;;;;5092387;28;20055;-80
2022/04/28 08:15:10;;;;;;;19.50;13.85;;;10.60;68.40;;;;;;5091301;28;20144;-80
2022/04/28 08:17:37;;;;;;;19.05;12.88;;;10.70;68.30;;;;;;5092041;28;20048;-81
2022/04/28 08:20:04;;;;;;;22.50;13.00;;;10.80;68.20;;;;;;5090728;28;20562;-81
2022/04/28 08:22:31;;;;;;;18.85;13.30;;;10.90;68.00;;;;;;5092001;28;20499;-82
2022/04/28 08:24:58;;;;;;;17.83;12.43;;;10.90;67.80;;;;;;5092053;28;20056;-81
2022/04/28 08:27:25;;;;;;;18.40;13.23;;;11.00;67.70;;;;;;5092501;28;20040;-81
2022/04/28 08:29:52;;;;;;;18.77;12.98;;;11.20;67.50;;;;;;5089900;28;20056;-81
2022/04/28 08:32:19;;;;;;;19.60;13.02;;;11.20;67.30;;;;;;5085778;28;20479;-81
2022/04/28 08:34:46;;;;;;;25.85;13.55;;;11.40;67.20;;;;;;5085134;28;20049;-81
2022/04/28 08:37:13;;;;;;;20.30;12.98;;;11.40;67.10;;;;;;5087759;28;20499;-81
2022/04/28 08:39:40;;;;;;;16.48;11.95;;;11.50;66.90;;;;;;5074455;28;20068;-80
2022/04/28 08:42:13;;;;;;;20.23;13.60;;;11.60;66.70;;;;;;5071846;28;20045;-80
2022/04/28 08:44:40;;;;;;;19.10;13.60;;;11.70;66.60;;;;;;5070199;28;20044;-80
2022/04/28 08:47:08;;;;;;;19.10;13.65;;;11.80;66.40;;;;;;5076533;28;20518;-80
2022/04/28 08:49:36;;;;;;;20.50;13.32;;;11.90;66.30;;;;;;5076234;28;20055;-79
2022/04/28 08:52:06;;;;;;;21.65;13.13;;;11.90;66.10;;;;;;5072177;28;20036;-80
2022/04/28 08:54:36;;;;;;;19.20;11.98;;;12.10;66.00;;;;;;5088173;28;20074;-80
2022/04/28 08:57:05;;;;;;;19.92;11.95;;;12.20;65.90;;;;;;5076946;28;20055;-80
2022/04/28 08:59:32;;;;;;;18.42;12.90;;;12.30;65.70;;;;;;5080511;28;20044;-80
2022/04/28 09:01:59;;;;;;;20.35;12.40;;;12.40;65.60;;;;;;5084728;28;20089;-80
2022/04/28 09:04:27;;;;;;;21.23;13.45;;;12.50;65.40;;;;;;5087677;28;20056;-79
2022/04/28 09:06:56;;;;;;;21.17;13.30;;;12.60;65.20;;;;;;5073070;28;20066;-79
2022/04/28 09:09:27;;;;;;;18.75;12.02;;;12.70;65.00;;;;;;5087408;28;20048;-80
2022/04/28 09:12:01;;;;;;;17.88;12.38;;;12.80;64.90;;;;;;5076816;28;20102;-79
2022/04/28 09:14:28;;;;;;;19.92;13.05;;;12.90;64.70;;;;;;5076192;28;20468;-80
2022/04/28 09:17:04;;;;;;;20.50;12.55;;;13.00;64.50;;;;;;5075721;28;20157;-79
2022/04/28 09:19:36;;;;;;;17.33;12.57;;;13.10;64.30;;;;;;5087560;28;20054;-79
2022/04/28 09:22:09;;;;;;;19.30;12.60;;;13.20;64.20;;;;;;5070752;28;20049;-79
2022/04/28 09:24:39;;;;;;;20.95;12.88;;;13.30;63.90;;;;;;5071103;28;20044;-79
2022/04/28 09:27:07;;;;;;;19.52;12.40;;;13.40;63.80;;;;;;5076423;28;20056;-79
2022/04/28 09:29:39;;;;;;;20.40;11.98;;;13.50;63.60;;;;;;5076308;28;20509;-80
2022/04/28 09:32:11;;;;;;;20.10;13.10;;;13.60;63.40;;;;;;5075965;28;20066;-79
2022/04/28 09:35:07;;;;;;;19.17;11.98;;;13.70;63.20;;;;;;5075686;28;20139;-79
2022/04/28 09:37:37;;;;;;;26.55;12.15;;;13.80;63.00;;;;;;5075567;28;20052;-79
2022/04/28 09:42:52;;;;;;;19.40;12.18;;;14.00;62.60;;;;;;5087462;28;20048;-79
2022/04/28 09:45:22;;;;;;;15.32;11.38;;;14.10;62.40;;;;;;5075766;28;20098;-80
2022/04/28 09:48:04;;;;;;;17.40;11.48;;;14.20;62.30;;;;;;5075715;28;20044;-79
2022/04/28 09:50:32;;;;;;;18.30;11.50;;;14.30;62.10;;;;;;5079622;28;20494;-79
2022/04/28 09:53:05;;;;;;;21.83;12.05;;;14.40;62.00;;;;;;5079356;28;20101;-80
2022/04/28 09:55:33;;;;;;;16.50;11.15;;;14.40;61.80;;;;;;5078512;28;20052;-79
2022/04/28 09:58:03;;;;;;;16.88;11.48;;;14.50;61.70;;;;;;5075198;28;20086;-79
2022/04/28 10:00:30;;;;;;;15.30;11.13;;;14.60;61.50;;;;;;5083498;28;20177;-79
2022/04/28 10:02:59;;;;;;;17.05;12.00;;;14.70;61.40;;;;;;5087802;28;20048;-79
2022/04/28 10:05:28;;;;;;;16.77;10.80;;;14.80;61.30;;;;;;5083795;28;20060;-79
2022/04/28 10:07:55;;;;;;;20.80;11.32;;;14.90;61.10;;;;;;5079128;28;20469;-80
2022/04/28 10:10:26;;;;;;;17.75;11.45;;;14.90;61.00;;;;;;5076545;28;20091;-79
2022/04/28 10:12:55;;;;;;;18.60;11.80;;;15.10;60.80;;;;;;5075799;28;20052;-80
2022/04/28 10:15:24;;;;;;;16.45;11.10;;;15.20;60.70;;;;;;5078772;28;20422;-79
2022/04/28 10:17:57;;;;;;;18.90;12.02;;;15.20;60.60;;;;;;5078731;28;20510;-79
2022/04/28 10:20:39;;;;;;;15.35;11.10;;;15.30;60.40;;;;;;5078591;28;20506;-79
2022/04/28 10:35:03;;;;;;;16.02;11.98;;;15.80;59.60;;;;;;5078516;28;20101;-80
2022/04/28 10:37:34;;;;;;;17.48;11.60;;;15.90;59.40;;;;;;5077546;28;20048;-79
2022/04/28 10:40:03;;;;;;;15.98;12.02;;;16.00;59.30;;;;;;5073657;28;20044;-79
2022/04/28 10:42:33;;;;;;;19.60;11.85;;;16.00;59.10;;;;;;5078390;28;20048;-79
2022/04/28 10:45:04;;;;;;;19.73;11.55;;;16.10;58.90;;;;;;5078572;28;20049;-79
2022/04/28 10:47:38;;;;;;;16.20;11.65;;;16.20;58.80;;;;;;5078469;28;20049;-79
2022/04/28 10:50:24;;;;;;;16.60;11.43;;;16.30;58.60;;;;;;5077957;28;20522;-79
2022/04/28 10:53:03;;;;;;;17.90;11.82;;;16.40;58.40;;;;;;5078157;28;20052;-79
2022/04/28 10:55:34;;;;;;;19.33;12.52;;;16.40;58.30;;;;;;5076814;28;20040;-80
2022/04/28 10:58:18;;;;;;;18.05;11.90;;;16.50;58.10;;;;;;5073793;28;20044;-79
2022/04/28 11:00:52;;;;;;;19.97;12.50;;;16.60;57.90;;;;;;5089016;28;20093;-81
2022/04/28 11:03:47;;;;;;;15.52;11.60;;;16.70;57.80;;;;;;5077942;28;20282;-79
2022/04/28 11:06:33;;;;;;;14.85;11.82;;;16.80;57.60;;;;;;5072811;28;20044;-79
2022/04/28 11:09:03;;;;;;;19.13;13.77;;;16.90;57.40;;;;;;5078146;28;20099;-79
2022/04/28 11:11:46;;;;;;;20.73;12.43;;;16.90;57.30;;;;;;5077820;28;20456;-79
2022/04/28 11:14:15;;;;;;;21.40;12.60;;;17.00;57.10;;;;;;5079954;28;20048;-79
2022/04/28 11:16:42;;;;;;;23.27;13.25;;;17.00;56.90;;;;;;5088557;28;20666;-79
2022/04/28 11:19:11;;;;;;;15.60;11.90;;;17.10;56.80;;;;;;5073825;28;20095;-78
2022/04/28 11:21:39;;;;;;;21.40;11.65;;;17.20;56.60;;;;;;5074760;28;20056;-80
2022/04/28 11:26:54;;;;;;;17.65;12.50;;;17.40;56.50;;;;;;5088161;28;20044;-79
2022/04/28 11:29:22;;;;;;;21.15;12.90;;;17.40;56.30;;;;;;5085953;28;20048;-81
2022/04/28 11:31:50;;;;;;;16.92;12.43;;;17.50;56.10;;;;;;5087530;28;20048;-81
2022/04/28 11:34:18;;;;;;;20.50;11.98;;;17.50;55.90;;;;;;5074820;28;20119;-80
2022/04/28 11:36:46;;;;;;;17.38;12.65;;;17.60;55.80;;;;;;5074912;28;20056;-81
2022/04/28 11:39:13;;;;;;;17.65;11.82;;;17.60;55.70;;;;;;5077390;28;20060;-80
2022/04/28 11:41:41;;;;;;;16.25;11.00;;;17.70;55.60;;;;;;5077450;28;20102;-81
2022/04/28 11:44:10;;;;;;;14.25;11.02;;;17.80;55.50;;;;;;5077380;28;20041;-80
2022/04/28 11:46:51;;;;;;;16.60;10.95;;;17.90;55.40;;;;;;5074495;28;20060;-80
2022/04/28 11:49:19;;;;;;;18.67;11.27;;;17.90;55.20;;;;;;5074543;28;20066;-79
2022/04/28 11:51:46;;;;;;;20.83;11.25;;;17.90;55.10;;;;;;5073524;28;20055;-80
2022/04/28 11:54:25;;;;;;;18.92;10.88;;;18.00;55.00;;;;;;5077054;28;20091;-79
2022/04/28 11:57:09;;;;;;;14.40;10.73;;;18.00;54.90;;;;;;5077172;28;20114;-79
2022/04/28 11:59:40;;;;;;;19.13;11.05;;;18.10;54.90;;;;;;5077019;28;20052;-79
2022/04/28 12:02:23;;;;;;;17.08;11.95;;;18.20;54.80;;;;;;5077101;28;20045;-81
2022/04/28 12:04:51;;;;;;;16.52;10.55;;;18.20;54.80;;;;;;5077002;28;20044;-79
2022/04/28 12:07:37;;;;;;;16.58;9.95;;;18.20;54.70;;;;;;5073981;28;20071;-80
2022/04/28 12:15:35;;;;;;;19.40;11.30;;;18.40;54.40;;;;;;5088174;28;20051;-80
2022/04/28 12:20:58;;;;;;;14.13;10.00;;;18.50;54.20;;;;;;5084774;28;20048;-79
2022/04/28 12:23:30;;;;;;;12.77;8.95;;;18.60;54.00;;;;;;5081753;28;20118;-80
2022/04/28 12:26:01;;;;;;;16.30;9.73;;;18.60;53.90;;;;;;5076246;28;20122;-79
2022/04/28 12:28:40;;;;;;;14.82;10.02;;;18.70;53.80;;;;;;5088417;28;20044;-79
2022/04/28 12:31:09;;;;;;;15.63;10.68;;;18.80;53.70;;;;;;5072687;28;20498;-79
2022/04/28 12:33:57;;;;;;;14.13;10.07;;;18.80;53.50;;;;;;5073693;28;20056;-80
2022/04/28 12:36:44;;;;;;;19.02;10.43;;;18.90;53.40;;;;;;5091871;28;20093;-79
2022/04/28 12:39:30;;;;;;;19.00;9.70;;;18.90;53.20;;;;;;5086603;28;20052;-79
2022/04/28 12:41:58;;;;;;;19.38;12.20;;;18.90;53.00;;;;;;5076276;28;20052;-79
2022/04/28 12:44:26;;;;;;;14.70;9.68;;;18.90;52.80;;;;;;5075980;28;20416;-79
2022/04/28 12:47:05;;;;;;;14.77;8.98;;;18.90;52.70;;;;;;5076175;28;20411;-79
2022/04/28 12:49:44;;;;;;;16.75;10.07;;;18.90;52.50;;;;;;5074970;28;20563;-79
2022/04/28 12:52:26;;;;;;;14.60;8.85;;;19.00;52.40;;;;;;5072984;28;20457;-80
2022/04/28 12:55:04;;;;;;;16.13;9.63;;;19.00;52.20;;;;;;5073258;28;20056;-80
2022/04/28 12:57:32;;;;;;;13.60;9.10;;;19.00;52.10;;;;;;5071876;28;20456;-80
2022/04/28 13:00:07;;;;;;;13.80;8.77;;;19.10;52.00;;;;;;5076143;28;20048;-80
2022/04/28 13:02:34;;;;;;;12.15;8.25;;;19.10;51.90;;;;;;5076233;28;20057;-80
2022/04/28 13:05:12;;;;;;;14.18;9.43;;;19.10;51.80;;;;;;5076041;28;20041;-80
2022/04/28 13:07:59;;;;;;;10.43;7.32;;;19.10;51.60;;;;;;5076322;28;20519;-80
2022/04/28 13:10:26;;;;;;;11.95;8.20;;;19.20;51.50;;;;;;5074735;28;20509;-80
2022/04/28 13:13:12;;;;;;;13.05;7.40;;;19.20;51.40;;;;;;5073111;28;20098;-81
2022/04/28 13:15:39;;;;;;;10.48;7.65;;;19.20;51.30;;;;;;5087189;28;20059;-81
2022/04/28 13:18:06;;;;;;;13.90;6.70;;;19.20;51.20;;;;;;5076801;28;20079;-80
2022/04/28 13:20:33;;;;;;;12.40;7.72;;;19.20;51.10;;;;;;5075921;28;20393;-81
2022/04/28 13:23:01;;;;;;;14.52;7.22;;;19.20;51.00;;;;;;5077352;28;20040;-82
2022/04/28 13:25:28;;;;;;;11.55;8.18;;;19.30;50.90;;;;;;5078727;28;20048;-82
2022/04/28 13:27:54;;;;;;;13.50;8.15;;;19.30;50.80;;;;;;5076615;28;20052;-82
2022/04/28 13:30:40;;;;;;;10.48;7.30;;;19.30;50.60;;;;;;5079881;28;20044;-82
2022/04/28 13:33:08;;;;;;;14.20;8.50;;;19.40;50.50;;;;;;5074776;28;20056;-82
2022/04/28 13:35:37;;;;;;;10.82;7.28;;;19.30;50.30;;;;;;5078443;28;20049;-81
2022/04/28 13:38:06;;;;;;;11.65;7.32;;;19.30;50.10;;;;;;5078269;28;20484;-81
2022/04/28 13:40:33;;;;;;;11.63;6.90;;;19.30;50.10;;;;;;5078961;28;20052;-82